createdAt,value
2022-11-29T00:00:55.337Z,1008.92
2022-11-29T00:01:55.433Z,1008.91
2022-11-29T00:02:55.506Z,1008.87
2022-11-29T00:03:55.324Z,1008.92
2022-11-29T00:04:55.323Z,1008.91
2022-11-29T00:05:55.313Z,1008.89
2022-11-29T00:06:55.311Z,1008.89
2022-11-29T00:07:55.325Z,1008.92
2022-11-29T00:08:55.303Z,1008.90
2022-11-29T00:09:55.298Z,1008.90
2022-11-29T00:10:55.318Z,1008.92
2022-11-29T00:11:55.288Z,1008.89
2022-11-29T00:12:55.286Z,1008.90
2022-11-29T00:13:55.280Z,1008.92
2022-11-29T00:14:55.279Z,1008.90
2022-11-29T00:15:55.273Z,1008.90
2022-11-29T00:16:55.394Z,1008.92
2022-11-29T00:17:55.271Z,1008.92
2022-11-29T00:18:55.263Z,1008.89
2022-11-29T00:19:55.259Z,1008.91
2022-11-29T00:20:55.253Z,1008.95
2022-11-29T00:21:55.249Z,1008.93
2022-11-29T00:22:55.246Z,1008.93
2022-11-29T00:23:55.240Z,1008.94
2022-11-29T00:24:55.439Z,1008.95
2022-11-29T00:25:55.231Z,1008.95
2022-11-29T00:26:55.251Z,1008.93
2022-11-29T00:27:55.224Z,1008.89
2022-11-29T00:28:55.221Z,1008.92
2022-11-29T00:29:55.215Z,1008.97
2022-11-29T00:30:55.283Z,1008.97
2022-11-29T00:31:55.207Z,1008.98
2022-11-29T00:32:55.205Z,1008.96
2022-11-29T00:33:55.198Z,1008.99
2022-11-29T00:34:59.245Z,1008.98
2022-11-29T00:35:55.190Z,1008.96
2022-11-29T00:36:55.189Z,1008.98
2022-11-29T00:37:55.181Z,1008.95
2022-11-29T00:38:55.186Z,1008.96
2022-11-29T00:39:55.176Z,1008.96
2022-11-29T00:40:55.177Z,1008.95
2022-11-29T00:41:55.169Z,1008.97
2022-11-29T00:42:55.186Z,1008.95
2022-11-29T00:43:55.157Z,1008.98
2022-11-29T00:44:55.154Z,1009.00
2022-11-29T00:45:55.199Z,1008.98
2022-11-29T00:46:55.146Z,1009.00
2022-11-29T00:47:55.141Z,1009.00
2022-11-29T00:48:55.144Z,1009.01
2022-11-29T00:49:55.137Z,1009.02
2022-11-29T00:50:55.132Z,1009.01
2022-11-29T00:51:55.124Z,1009.00
2022-11-29T00:52:55.120Z,1009.00
2022-11-29T00:53:55.124Z,1009.01
2022-11-29T00:54:55.114Z,1009.04
2022-11-29T00:55:55.107Z,1008.98
2022-11-29T00:56:55.104Z,1009.00
2022-11-29T00:57:55.097Z,1008.99
2022-11-29T00:58:55.122Z,1008.99
2022-11-29T00:59:55.094Z,1009.04
2022-11-29T01:00:55.142Z,1009.01
2022-11-29T01:01:55.084Z,1009.02
2022-11-29T01:02:55.083Z,1009.04
2022-11-29T01:03:55.076Z,1009.04
2022-11-29T01:04:55.072Z,1008.98
2022-11-29T01:05:55.069Z,1009.00
2022-11-29T01:06:55.070Z,1008.98
2022-11-29T01:07:55.136Z,1008.98
2022-11-29T01:08:55.056Z,1009.00
2022-11-29T01:09:55.051Z,1008.98
2022-11-29T01:10:55.047Z,1008.96
2022-11-29T01:11:55.049Z,1008.98
2022-11-29T01:12:55.040Z,1009.05
2022-11-29T01:13:55.051Z,1009.03
2022-11-29T01:14:55.061Z,1009.02
2022-11-29T01:15:55.034Z,1009.05
2022-11-29T01:16:55.083Z,1009.05
2022-11-29T01:17:55.015Z,1009.06
2022-11-29T01:18:55.020Z,1009.06
2022-11-29T01:19:55.007Z,1009.05
2022-11-29T01:20:55.005Z,1009.07
2022-11-29T01:21:55.001Z,1009.11
2022-11-29T01:22:54.998Z,1009.04
2022-11-29T01:23:54.992Z,1009.09
2022-11-29T01:24:54.992Z,1009.09
2022-11-29T01:25:54.983Z,1009.06
2022-11-29T01:26:54.989Z,1009.08
2022-11-29T01:27:54.988Z,1009.06
2022-11-29T01:28:54.973Z,1009.11
2022-11-29T01:29:54.969Z,1009.08
2022-11-29T01:30:55.059Z,1009.04
2022-11-29T01:31:54.959Z,1009.07
2022-11-29T01:32:54.957Z,1009.06
2022-11-29T01:33:54.956Z,1009.06
2022-11-29T01:34:54.948Z,1009.06
2022-11-29T01:35:54.942Z,1009.04
2022-11-29T01:36:54.939Z,1009.08
2022-11-29T01:37:54.936Z,1009.07
2022-11-29T01:38:54.931Z,1009.07
2022-11-29T01:39:54.926Z,1009.10
2022-11-29T01:40:54.923Z,1009.09
2022-11-29T01:41:54.920Z,1009.13
2022-11-29T01:42:54.923Z,1009.12
2022-11-29T01:43:54.911Z,1009.10
2022-11-29T01:44:54.907Z,1009.10
2022-11-29T01:45:54.918Z,1009.11
2022-11-29T01:46:54.919Z,1009.11
2022-11-29T01:47:54.893Z,1009.16
2022-11-29T01:48:54.889Z,1009.15
2022-11-29T01:49:54.884Z,1009.14
2022-11-29T01:50:54.884Z,1009.16
2022-11-29T01:51:54.877Z,1009.20
2022-11-29T01:52:54.875Z,1009.22
2022-11-29T01:53:54.875Z,1009.21
2022-11-29T01:54:54.867Z,1009.22
2022-11-29T01:55:54.975Z,1009.23
2022-11-29T01:56:54.860Z,1009.24
2022-11-29T01:57:54.852Z,1009.25
2022-11-29T01:58:54.852Z,1009.25
2022-11-29T01:59:54.843Z,1009.24
2022-11-29T02:00:54.966Z,1009.25
2022-11-29T02:01:54.841Z,1009.27
2022-11-29T02:02:54.922Z,1009.31
2022-11-29T02:03:54.831Z,1009.26
2022-11-29T02:04:54.828Z,1009.28
2022-11-29T02:05:54.820Z,1009.26
2022-11-29T02:06:54.818Z,1009.26
2022-11-29T02:07:54.886Z,1009.29
2022-11-29T02:08:54.807Z,1009.25
2022-11-29T02:09:54.802Z,1009.26
2022-11-29T02:10:54.800Z,1009.25
2022-11-29T02:11:54.796Z,1009.28
2022-11-29T02:12:54.790Z,1009.28
2022-11-29T02:13:54.787Z,1009.28
2022-11-29T02:14:54.785Z,1009.31
2022-11-29T02:15:54.831Z,1009.30
2022-11-29T02:16:56.730Z,1009.34
2022-11-29T02:17:54.768Z,1009.32
2022-11-29T02:18:54.791Z,1009.33
2022-11-29T02:19:54.764Z,1009.34
2022-11-29T02:20:54.758Z,1009.34
2022-11-29T02:21:54.757Z,1009.35
2022-11-29T02:22:54.751Z,1009.32
2022-11-29T02:23:54.743Z,1009.36
2022-11-29T02:24:54.741Z,1009.36
2022-11-29T02:25:54.735Z,1009.34
2022-11-29T02:26:54.739Z,1009.33
2022-11-29T02:27:54.729Z,1009.36
2022-11-29T02:28:54.728Z,1009.37
2022-11-29T02:29:54.718Z,1009.35
2022-11-29T02:30:54.772Z,1009.41
2022-11-29T02:31:54.712Z,1009.41
2022-11-29T02:32:54.710Z,1009.42
2022-11-29T02:33:54.706Z,1009.39
2022-11-29T02:34:54.722Z,1009.37
2022-11-29T02:35:54.697Z,1009.39
2022-11-29T02:36:54.692Z,1009.37
2022-11-29T02:37:54.694Z,1009.38
2022-11-29T02:38:54.686Z,1009.42
2022-11-29T02:39:54.679Z,1009.41
2022-11-29T02:40:54.676Z,1009.42
2022-11-29T02:41:54.672Z,1009.45
2022-11-29T02:42:57.070Z,1009.42
2022-11-29T02:43:54.665Z,1009.44
2022-11-29T02:44:54.663Z,1009.44
2022-11-29T02:45:54.762Z,1009.39
2022-11-29T02:46:54.652Z,1009.38
2022-11-29T02:47:54.646Z,1009.40
2022-11-29T02:48:54.642Z,1009.42
2022-11-29T02:49:54.637Z,1009.41
2022-11-29T02:50:54.661Z,1009.43
2022-11-29T02:51:54.629Z,1009.43
2022-11-29T02:52:54.626Z,1009.42
2022-11-29T02:53:54.620Z,1009.44
2022-11-29T02:54:54.619Z,1009.47
2022-11-29T02:55:54.614Z,1009.48
2022-11-29T02:56:54.612Z,1009.47
2022-11-29T02:57:54.607Z,1009.49
2022-11-29T02:58:54.604Z,1009.47
2022-11-29T02:59:54.599Z,1009.52
2022-11-29T03:00:54.593Z,1009.50
2022-11-29T03:01:54.626Z,1009.54
2022-11-29T03:02:54.606Z,1009.52
2022-11-29T03:03:54.593Z,1009.52
2022-11-29T03:04:54.578Z,1009.47
2022-11-29T03:05:54.576Z,1009.52
2022-11-29T03:06:54.593Z,1009.51
2022-11-29T03:07:54.644Z,1009.47
2022-11-29T03:08:54.561Z,1009.48
2022-11-29T03:09:54.557Z,1009.46
2022-11-29T03:10:54.552Z,1009.47
2022-11-29T03:11:54.551Z,1009.54
2022-11-29T03:12:54.544Z,1009.52
2022-11-29T03:13:54.547Z,1009.59
2022-11-29T03:14:54.537Z,1009.56
2022-11-29T03:15:54.599Z,1009.55
2022-11-29T03:16:54.531Z,1009.60
2022-11-29T03:17:54.525Z,1009.59
2022-11-29T03:18:54.522Z,1009.59
2022-11-29T03:19:54.518Z,1009.62
2022-11-29T03:20:54.515Z,1009.61
2022-11-29T03:21:54.509Z,1009.65
2022-11-29T03:22:54.521Z,1009.65
2022-11-29T03:23:54.503Z,1009.69
2022-11-29T03:24:54.493Z,1009.69
2022-11-29T03:25:54.500Z,1009.71
2022-11-29T03:26:54.486Z,1009.69
2022-11-29T03:27:54.485Z,1009.71
2022-11-29T03:28:54.481Z,1009.70
2022-11-29T03:29:54.825Z,1009.71
2022-11-29T03:30:54.501Z,1009.70
2022-11-29T03:31:54.464Z,1009.70
2022-11-29T03:32:54.460Z,1009.71
2022-11-29T03:33:54.458Z,1009.69
2022-11-29T03:34:57.357Z,1009.72
2022-11-29T03:35:54.453Z,1009.72
2022-11-29T03:36:54.442Z,1009.74
2022-11-29T03:37:54.439Z,1009.74
2022-11-29T03:38:54.452Z,1009.74
2022-11-29T03:39:54.431Z,1009.76
2022-11-29T03:40:54.426Z,1009.82
2022-11-29T03:41:54.421Z,1009.82
2022-11-29T03:42:54.416Z,1009.87
2022-11-29T03:43:54.415Z,1009.84
2022-11-29T03:44:54.409Z,1009.83
2022-11-29T03:45:54.456Z,1009.84
2022-11-29T03:46:54.401Z,1009.80
2022-11-29T03:47:54.397Z,1009.85
2022-11-29T03:48:54.391Z,1009.83
2022-11-29T03:49:54.392Z,1009.85
2022-11-29T03:50:54.384Z,1009.87
2022-11-29T03:51:54.384Z,1009.87
2022-11-29T03:52:54.376Z,1009.87
2022-11-29T03:53:54.383Z,1009.86
2022-11-29T03:54:54.388Z,1009.90
2022-11-29T03:55:54.364Z,1009.88
2022-11-29T03:56:54.358Z,1009.87
2022-11-29T03:57:54.359Z,1009.86
2022-11-29T03:58:54.350Z,1009.89
2022-11-29T03:59:54.361Z,1009.90
2022-11-29T04:00:54.343Z,1009.91
2022-11-29T04:01:54.391Z,1009.91
2022-11-29T04:02:54.371Z,1009.89
2022-11-29T04:03:54.333Z,1009.93
2022-11-29T04:04:54.328Z,1009.93
2022-11-29T04:05:54.323Z,1009.94
2022-11-29T04:06:54.315Z,1009.95
2022-11-29T04:07:54.401Z,1009.95
2022-11-29T04:08:54.309Z,1009.95
2022-11-29T04:09:54.309Z,1009.97
2022-11-29T04:10:54.321Z,1009.97
2022-11-29T04:11:54.298Z,1009.98
2022-11-29T04:12:54.290Z,1009.99
2022-11-29T04:13:54.286Z,1010.01
2022-11-29T04:14:54.281Z,1009.98
2022-11-29T04:15:54.295Z,1009.99
2022-11-29T04:16:54.273Z,1009.99
2022-11-29T04:17:54.272Z,1010.04
2022-11-29T04:18:54.265Z,1010.03
2022-11-29T04:19:54.263Z,1010.03
2022-11-29T04:20:54.255Z,1010.04
2022-11-29T04:21:54.252Z,1010.03
2022-11-29T04:22:54.251Z,1010.07
2022-11-29T04:23:54.246Z,1010.11
2022-11-29T04:24:54.238Z,1010.05
2022-11-29T04:25:54.238Z,1010.15
2022-11-29T04:26:54.251Z,1010.09
2022-11-29T04:27:54.228Z,1010.12
2022-11-29T04:28:54.223Z,1010.09
2022-11-29T04:29:54.471Z,1010.13
2022-11-29T04:30:54.327Z,1010.14
2022-11-29T04:31:54.219Z,1010.17
2022-11-29T04:32:54.205Z,1010.16
2022-11-29T04:33:54.205Z,1010.18
2022-11-29T04:34:54.198Z,1010.17
2022-11-29T04:35:54.195Z,1010.19
2022-11-29T04:36:54.187Z,1010.14
2022-11-29T04:37:54.189Z,1010.22
2022-11-29T04:38:54.180Z,1010.20
2022-11-29T04:39:54.178Z,1010.19
2022-11-29T04:40:54.180Z,1010.18
2022-11-29T04:41:54.167Z,1010.17
2022-11-29T04:42:54.186Z,1010.20
2022-11-29T04:43:54.165Z,1010.18
2022-11-29T04:44:54.160Z,1010.21
2022-11-29T04:45:54.154Z,1010.22
2022-11-29T04:46:54.146Z,1010.20
2022-11-29T04:47:54.145Z,1010.21
2022-11-29T04:48:54.138Z,1010.23
2022-11-29T04:49:54.135Z,1010.26
2022-11-29T04:50:54.131Z,1010.25
2022-11-29T04:51:54.127Z,1010.28
2022-11-29T04:52:54.121Z,1010.27
2022-11-29T04:53:54.120Z,1010.30
2022-11-29T04:54:54.110Z,1010.30
2022-11-29T04:55:54.111Z,1010.34
2022-11-29T04:56:54.105Z,1010.34
2022-11-29T04:57:54.099Z,1010.33
2022-11-29T04:58:54.118Z,1010.32
2022-11-29T04:59:54.092Z,1010.30
2022-11-29T05:00:54.084Z,1010.36
2022-11-29T05:01:54.130Z,1010.37
2022-11-29T05:02:54.130Z,1010.38
2022-11-29T05:03:57.208Z,1010.39
2022-11-29T05:04:54.068Z,1010.40
2022-11-29T05:05:54.070Z,1010.45
2022-11-29T05:06:54.061Z,1010.45
2022-11-29T05:07:54.147Z,1010.48
2022-11-29T05:08:54.053Z,1010.52
2022-11-29T05:09:54.047Z,1010.54
2022-11-29T05:10:54.043Z,1010.55
2022-11-29T05:11:54.038Z,1010.53
2022-11-29T05:12:54.033Z,1010.57
2022-11-29T05:13:54.029Z,1010.56
2022-11-29T05:14:54.046Z,1010.57
2022-11-29T05:15:54.091Z,1010.58
2022-11-29T05:16:54.015Z,1010.60
2022-11-29T05:17:54.015Z,1010.61
2022-11-29T05:18:54.007Z,1010.59
2022-11-29T05:19:54.007Z,1010.59
2022-11-29T05:20:53.998Z,1010.62
2022-11-29T05:21:54.006Z,1010.59
2022-11-29T05:22:53.986Z,1010.64
2022-11-29T05:23:53.986Z,1010.64
2022-11-29T05:24:53.979Z,1010.66
2022-11-29T05:25:53.976Z,1010.66
2022-11-29T05:26:53.969Z,1010.66
2022-11-29T05:27:53.971Z,1010.71
2022-11-29T05:28:53.961Z,1010.70
2022-11-29T05:29:53.957Z,1010.70
2022-11-29T05:30:54.033Z,1010.71
2022-11-29T05:31:53.951Z,1010.72
2022-11-29T05:32:53.945Z,1010.73
2022-11-29T05:33:53.942Z,1010.76
2022-11-29T05:34:54.337Z,1010.75
2022-11-29T05:35:53.937Z,1010.73
2022-11-29T05:36:53.926Z,1010.75
2022-11-29T05:37:53.924Z,1010.75
2022-11-29T05:38:53.920Z,1010.77
2022-11-29T05:39:53.918Z,1010.75
2022-11-29T05:40:54.003Z,1010.80
2022-11-29T05:41:53.914Z,1010.79
2022-11-29T05:42:53.902Z,1010.82
2022-11-29T05:43:53.902Z,1010.83
2022-11-29T05:44:53.893Z,1010.84
2022-11-29T05:45:53.891Z,1010.88
2022-11-29T05:46:53.905Z,1010.88
2022-11-29T05:47:53.883Z,1010.87
2022-11-29T05:48:53.885Z,1010.91
2022-11-29T05:49:53.872Z,1010.92
2022-11-29T05:50:53.867Z,1010.91
2022-11-29T05:51:53.863Z,1010.96
2022-11-29T05:52:53.856Z,1010.92
2022-11-29T05:53:53.854Z,1010.96
2022-11-29T05:54:53.849Z,1010.95
2022-11-29T05:55:53.844Z,1010.96
2022-11-29T05:56:53.839Z,1010.96
2022-11-29T05:57:53.834Z,1010.96
2022-11-29T05:58:53.836Z,1010.97
2022-11-29T05:59:53.832Z,1010.97
2022-11-29T06:00:53.831Z,1010.97
2022-11-29T06:01:53.891Z,1011.00
2022-11-29T06:02:53.847Z,1011.03
2022-11-29T06:03:53.812Z,1011.06
2022-11-29T06:04:53.805Z,1011.10
2022-11-29T06:05:53.800Z,1011.10
2022-11-29T06:06:53.801Z,1011.15
2022-11-29T06:07:53.821Z,1011.13
2022-11-29T06:08:53.786Z,1011.15
2022-11-29T06:09:53.783Z,1011.18
2022-11-29T06:10:53.777Z,1011.13
2022-11-29T06:11:53.779Z,1011.18
2022-11-29T06:12:53.770Z,1011.18
2022-11-29T06:13:53.765Z,1011.23
2022-11-29T06:14:53.764Z,1011.22
2022-11-29T06:15:53.823Z,1011.27
2022-11-29T06:16:53.753Z,1011.23
2022-11-29T06:17:53.750Z,1011.28
2022-11-29T06:18:53.766Z,1011.31
2022-11-29T06:19:53.747Z,1011.34
2022-11-29T06:20:53.735Z,1011.35
2022-11-29T06:21:53.733Z,1011.40
2022-11-29T06:22:53.731Z,1011.42
2022-11-29T06:23:53.724Z,1011.45
2022-11-29T06:24:53.717Z,1011.45
2022-11-29T06:25:53.723Z,1011.46
2022-11-29T06:26:53.738Z,1011.47
2022-11-29T06:27:53.707Z,1011.47
2022-11-29T06:28:53.703Z,1011.49
2022-11-29T06:29:53.701Z,1011.46
2022-11-29T06:30:53.693Z,1011.48
2022-11-29T06:31:53.693Z,1011.47
2022-11-29T06:32:53.685Z,1011.50
2022-11-29T06:33:53.683Z,1011.48
2022-11-29T06:34:53.692Z,1011.46
2022-11-29T06:35:53.671Z,1011.47
2022-11-29T06:36:53.663Z,1011.48
2022-11-29T06:37:53.663Z,1011.49
2022-11-29T06:38:53.669Z,1011.51
2022-11-29T06:39:53.855Z,1011.54
2022-11-29T06:40:58.613Z,1011.55
2022-11-29T06:41:53.647Z,1011.56
2022-11-29T06:42:53.639Z,1011.56
2022-11-29T06:43:53.634Z,1011.56
2022-11-29T06:44:53.631Z,1011.62
2022-11-29T06:45:53.634Z,1011.59
2022-11-29T06:46:53.688Z,1011.58
2022-11-29T06:47:53.619Z,1011.60
2022-11-29T06:48:56.593Z,1011.63
2022-11-29T06:49:53.609Z,1011.59
2022-11-29T06:50:53.624Z,1011.62
2022-11-29T06:51:53.602Z,1011.62
2022-11-29T06:52:53.597Z,1011.61
2022-11-29T06:53:53.593Z,1011.59
2022-11-29T06:54:53.589Z,1011.62
2022-11-29T06:55:53.587Z,1011.60
2022-11-29T06:56:53.581Z,1011.64
2022-11-29T06:57:53.575Z,1011.62
2022-11-29T06:58:53.570Z,1011.65
2022-11-29T06:59:53.575Z,1011.64
2022-11-29T07:00:53.576Z,1011.64
2022-11-29T07:01:53.624Z,1011.62
2022-11-29T07:02:53.595Z,1011.64
2022-11-29T07:03:53.552Z,1011.65
2022-11-29T07:04:53.544Z,1011.66
2022-11-29T07:05:53.539Z,1011.63
2022-11-29T07:06:53.554Z,1011.68
2022-11-29T07:07:53.582Z,1011.70
2022-11-29T07:08:53.526Z,1011.72
2022-11-29T07:09:53.524Z,1011.72
2022-11-29T07:10:53.516Z,1011.72
2022-11-29T07:11:53.512Z,1011.69
2022-11-29T07:12:53.513Z,1011.72
2022-11-29T07:13:53.505Z,1011.77
2022-11-29T07:14:53.497Z,1011.74
2022-11-29T07:15:53.535Z,1011.77
2022-11-29T07:16:57.346Z,1011.75
2022-11-29T07:17:53.485Z,1011.78
2022-11-29T07:18:53.480Z,1011.81
2022-11-29T07:19:53.476Z,1011.81
2022-11-29T07:20:53.471Z,1011.83
2022-11-29T07:21:53.466Z,1011.82
2022-11-29T07:22:53.493Z,1011.87
2022-11-29T07:23:53.466Z,1011.86
2022-11-29T07:24:53.454Z,1011.86
2022-11-29T07:25:53.448Z,1011.88
2022-11-29T07:26:58.126Z,1011.92
2022-11-29T07:27:53.440Z,1011.91
2022-11-29T07:28:53.438Z,1011.92
2022-11-29T07:29:53.433Z,1011.93
2022-11-29T07:30:53.427Z,1011.90
2022-11-29T07:31:53.457Z,1011.95
2022-11-29T07:32:58.785Z,1011.97
2022-11-29T07:33:53.414Z,1011.95
2022-11-29T07:34:53.410Z,1011.99
2022-11-29T07:35:53.407Z,1012.03
2022-11-29T07:36:53.413Z,1012.03
2022-11-29T07:37:53.403Z,1012.04
2022-11-29T07:38:53.417Z,1012.06
2022-11-29T07:39:53.737Z,1012.07
2022-11-29T07:40:53.385Z,1012.11
2022-11-29T07:41:53.386Z,1012.09
2022-11-29T07:42:53.381Z,1012.09
2022-11-29T07:43:53.371Z,1012.06
2022-11-29T07:44:53.367Z,1012.11
2022-11-29T07:45:53.362Z,1012.06
2022-11-29T07:46:53.431Z,1012.10
2022-11-29T07:47:53.354Z,1012.11
2022-11-29T07:48:53.352Z,1012.09
2022-11-29T07:49:53.344Z,1012.12
2022-11-29T07:50:53.343Z,1012.16
2022-11-29T07:51:53.338Z,1012.17
2022-11-29T07:52:53.332Z,1012.19
2022-11-29T07:53:53.325Z,1012.21
2022-11-29T07:54:53.347Z,1012.23
2022-11-29T07:55:53.319Z,1012.19
2022-11-29T07:56:53.315Z,1012.23
2022-11-29T07:57:53.310Z,1012.24
2022-11-29T07:58:53.356Z,1012.19
2022-11-29T07:59:53.299Z,1012.22
2022-11-29T08:00:53.379Z,1012.22
2022-11-29T08:01:53.322Z,1012.23
2022-11-29T08:02:53.289Z,1012.24
2022-11-29T08:03:53.282Z,1012.23
2022-11-29T08:04:53.279Z,1012.25
2022-11-29T08:05:53.273Z,1012.24
2022-11-29T08:06:53.284Z,1012.26
2022-11-29T08:07:53.319Z,1012.24
2022-11-29T08:08:53.262Z,1012.25
2022-11-29T08:09:53.256Z,1012.27
2022-11-29T08:10:53.288Z,1012.28
2022-11-29T08:11:53.254Z,1012.30
2022-11-29T08:12:53.246Z,1012.29
2022-11-29T08:13:53.239Z,1012.29
2022-11-29T08:14:53.243Z,1012.30
2022-11-29T08:15:53.233Z,1012.33
2022-11-29T08:16:53.233Z,1012.34
2022-11-29T08:17:53.223Z,1012.36
2022-11-29T08:18:53.217Z,1012.33
2022-11-29T08:19:53.215Z,1012.41
2022-11-29T08:20:53.210Z,1012.39
2022-11-29T08:21:53.204Z,1012.44
2022-11-29T08:22:53.206Z,1012.42
2022-11-29T08:23:53.195Z,1012.38
2022-11-29T08:24:53.193Z,1012.40
2022-11-29T08:25:53.188Z,1012.39
2022-11-29T08:26:53.276Z,1012.45
2022-11-29T08:27:53.183Z,1012.44
2022-11-29T08:28:53.176Z,1012.46
2022-11-29T08:29:53.170Z,1012.45
2022-11-29T08:30:53.165Z,1012.46
2022-11-29T08:31:53.339Z,1012.48
2022-11-29T08:32:53.156Z,1012.49
2022-11-29T08:33:53.150Z,1012.49
2022-11-29T08:34:53.154Z,1012.48
2022-11-29T08:35:53.143Z,1012.56
2022-11-29T08:36:53.142Z,1012.54
2022-11-29T08:37:53.136Z,1012.58
2022-11-29T08:39:01.244Z,1012.56
2022-11-29T08:39:53.577Z,1012.57
2022-11-29T08:40:53.121Z,1012.59
2022-11-29T08:41:53.116Z,1012.57
2022-11-29T08:42:53.136Z,1012.60
2022-11-29T08:43:53.108Z,1012.58
2022-11-29T08:44:53.103Z,1012.56
2022-11-29T08:45:53.185Z,1012.58
2022-11-29T08:46:53.098Z,1012.57
2022-11-29T08:47:53.090Z,1012.58
2022-11-29T08:48:53.087Z,1012.61
2022-11-29T08:49:53.086Z,1012.62
2022-11-29T08:50:53.086Z,1012.65
2022-11-29T08:51:53.080Z,1012.64
2022-11-29T08:52:53.069Z,1012.66
2022-11-29T08:53:53.071Z,1012.67
2022-11-29T08:54:53.061Z,1012.68
2022-11-29T08:55:53.055Z,1012.65
2022-11-29T08:57:37.341Z,1012.74
2022-11-29T08:57:53.047Z,1012.78
2022-11-29T08:58:53.069Z,1012.75
2022-11-29T08:59:53.053Z,1012.79
2022-11-29T09:00:53.132Z,1012.78
2022-11-29T09:01:53.069Z,1012.80
2022-11-29T09:02:53.035Z,1012.79
2022-11-29T09:03:53.023Z,1012.80
2022-11-29T09:04:53.016Z,1012.82
2022-11-29T09:05:53.011Z,1012.86
2022-11-29T09:06:53.011Z,1012.90
2022-11-29T09:07:53.043Z,1012.88
2022-11-29T09:08:53.012Z,1012.90
2022-11-29T09:09:52.997Z,1012.88
2022-11-29T09:10:52.997Z,1012.96
2022-11-29T09:11:52.993Z,1012.94
2022-11-29T09:12:52.984Z,1012.95
2022-11-29T09:13:52.981Z,1012.94
2022-11-29T09:14:53.007Z,1012.99
2022-11-29T09:15:52.980Z,1012.99
2022-11-29T09:16:53.023Z,1012.95
2022-11-29T09:17:52.964Z,1012.95
2022-11-29T09:18:52.963Z,1012.95
2022-11-29T09:19:52.954Z,1013.03
2022-11-29T09:20:52.950Z,1013.00
2022-11-29T09:21:52.945Z,1013.01
2022-11-29T09:22:52.952Z,1013.04
2022-11-29T09:23:52.944Z,1013.08
2022-11-29T09:24:52.930Z,1013.03
2022-11-29T09:25:52.925Z,1013.09
2022-11-29T09:26:52.924Z,1013.11
2022-11-29T09:27:52.918Z,1013.10
2022-11-29T09:28:52.913Z,1013.11
2022-11-29T09:29:52.910Z,1013.15
2022-11-29T09:30:52.929Z,1013.16
2022-11-29T09:31:52.928Z,1013.19
2022-11-29T09:32:52.896Z,1013.19
2022-11-29T09:33:52.892Z,1013.21
2022-11-29T09:34:52.897Z,1013.23
2022-11-29T09:35:52.888Z,1013.21
2022-11-29T09:36:52.880Z,1013.19
2022-11-29T09:37:52.874Z,1013.21
2022-11-29T09:38:52.872Z,1013.21
2022-11-29T09:39:52.868Z,1013.24
2022-11-29T09:40:52.875Z,1013.28
2022-11-29T09:41:52.865Z,1013.28
2022-11-29T09:42:52.857Z,1013.31
2022-11-29T09:43:52.849Z,1013.32
2022-11-29T09:44:52.847Z,1013.31
2022-11-29T09:45:52.895Z,1013.30
2022-11-29T09:46:58.425Z,1013.33
2022-11-29T09:47:52.835Z,1013.35
2022-11-29T09:48:52.830Z,1013.39
2022-11-29T09:49:52.825Z,1013.40
2022-11-29T09:50:52.817Z,1013.40
2022-11-29T09:51:52.817Z,1013.41
2022-11-29T09:52:52.810Z,1013.42
2022-11-29T09:53:52.807Z,1013.46
2022-11-29T09:54:52.812Z,1013.44
2022-11-29T09:55:52.798Z,1013.45
2022-11-29T09:56:52.796Z,1013.45
2022-11-29T09:57:52.789Z,1013.48
2022-11-29T09:58:52.783Z,1013.47
2022-11-29T09:59:52.782Z,1013.49
2022-11-29T10:00:52.811Z,1013.51
2022-11-29T10:01:52.775Z,1013.50
2022-11-29T10:02:52.810Z,1013.56
2022-11-29T10:03:52.764Z,1013.52
2022-11-29T10:04:52.758Z,1013.52
2022-11-29T10:05:52.752Z,1013.53
2022-11-29T10:06:52.749Z,1013.55
2022-11-29T10:07:52.797Z,1013.54
2022-11-29T10:08:52.740Z,1013.52
2022-11-29T10:09:52.733Z,1013.55
2022-11-29T10:10:52.729Z,1013.52
2022-11-29T10:11:52.725Z,1013.51
2022-11-29T10:12:52.722Z,1013.49
2022-11-29T10:13:52.714Z,1013.47
2022-11-29T10:14:52.713Z,1013.47
2022-11-29T10:15:52.707Z,1013.51
2022-11-29T10:16:52.783Z,1013.52
2022-11-29T10:17:52.696Z,1013.49
2022-11-29T10:18:52.714Z,1013.49
2022-11-29T10:19:52.688Z,1013.48
2022-11-29T10:20:52.687Z,1013.46
2022-11-29T10:21:52.678Z,1013.49
2022-11-29T10:22:52.676Z,1013.52
2022-11-29T10:23:52.670Z,1013.51
2022-11-29T10:24:52.667Z,1013.50
2022-11-29T10:25:52.662Z,1013.51
2022-11-29T10:26:52.661Z,1013.53
2022-11-29T10:27:52.651Z,1013.51
2022-11-29T10:28:52.655Z,1013.50
2022-11-29T10:29:52.643Z,1013.52
2022-11-29T10:30:52.674Z,1013.51
2022-11-29T10:31:52.633Z,1013.52
2022-11-29T10:32:52.632Z,1013.50
2022-11-29T10:33:52.627Z,1013.51
2022-11-29T10:34:52.657Z,1013.51
2022-11-29T10:35:52.632Z,1013.49
2022-11-29T10:36:52.615Z,1013.49
2022-11-29T10:38:28.667Z,1013.48
2022-11-29T10:38:52.611Z,1013.41
2022-11-29T10:39:52.599Z,1013.45
2022-11-29T10:40:52.595Z,1013.40
2022-11-29T10:41:52.590Z,1013.42
2022-11-29T10:42:52.586Z,1013.46
2022-11-29T10:43:52.579Z,1013.44
2022-11-29T10:44:52.580Z,1013.43
2022-11-29T10:45:52.585Z,1013.43
2022-11-29T10:46:52.575Z,1013.42
2022-11-29T10:47:52.566Z,1013.42
2022-11-29T10:48:52.559Z,1013.41
2022-11-29T10:49:52.560Z,1013.38
2022-11-29T10:50:52.581Z,1013.45
2022-11-29T10:51:52.550Z,1013.39
2022-11-29T10:52:55.860Z,1013.42
2022-11-29T10:53:52.535Z,1013.46
2022-11-29T10:54:52.535Z,1013.43
2022-11-29T10:55:52.527Z,1013.43
2022-11-29T10:56:52.545Z,1013.45
2022-11-29T10:57:52.517Z,1013.40
2022-11-29T10:58:52.517Z,1013.43
2022-11-29T10:59:52.517Z,1013.44
2022-11-29T11:00:52.588Z,1013.43
2022-11-29T11:01:52.556Z,1013.43
2022-11-29T11:02:52.503Z,1013.46
2022-11-29T11:03:53.177Z,1013.48
2022-11-29T11:04:52.497Z,1013.45
2022-11-29T11:05:52.539Z,1013.44
2022-11-29T11:06:52.502Z,1013.47
2022-11-29T11:07:52.525Z,1013.48
2022-11-29T11:08:52.476Z,1013.48
2022-11-29T11:09:52.467Z,1013.46
2022-11-29T11:10:55.439Z,1013.46
2022-11-29T11:11:52.459Z,1013.45
2022-11-29T11:12:52.459Z,1013.46
2022-11-29T11:13:52.451Z,1013.49
2022-11-29T11:14:52.450Z,1013.48
2022-11-29T11:15:52.441Z,1013.45
2022-11-29T11:16:52.486Z,1013.47
2022-11-29T11:17:52.433Z,1013.50
2022-11-29T11:18:52.430Z,1013.48
2022-11-29T11:19:52.430Z,1013.55
2022-11-29T11:20:52.420Z,1013.50
2022-11-29T11:21:52.414Z,1013.54
2022-11-29T11:22:52.456Z,1013.54
2022-11-29T11:23:52.406Z,1013.52
2022-11-29T11:24:52.405Z,1013.52
2022-11-29T11:25:52.398Z,1013.52
2022-11-29T11:26:52.396Z,1013.53
2022-11-29T11:27:52.392Z,1013.52
2022-11-29T11:28:52.386Z,1013.51
2022-11-29T11:29:52.581Z,1013.50
2022-11-29T11:30:52.412Z,1013.50
2022-11-29T11:31:52.375Z,1013.51
2022-11-29T11:32:52.368Z,1013.46
2022-11-29T11:33:52.365Z,1013.49
2022-11-29T11:34:52.407Z,1013.48
2022-11-29T11:35:52.355Z,1013.48
2022-11-29T11:36:52.355Z,1013.47
2022-11-29T11:37:52.351Z,1013.48
2022-11-29T11:38:52.370Z,1013.49
2022-11-29T11:39:52.391Z,1013.51
2022-11-29T11:40:57.843Z,1013.52
2022-11-29T11:41:52.337Z,1013.51
2022-11-29T11:42:52.330Z,1013.53
2022-11-29T11:43:52.324Z,1013.54
2022-11-29T11:44:52.507Z,1013.54
2022-11-29T11:45:52.344Z,1013.56
2022-11-29T11:46:52.314Z,1013.56
2022-11-29T11:47:52.307Z,1013.59
2022-11-29T11:48:52.302Z,1013.59
2022-11-29T11:49:52.298Z,1013.57
2022-11-29T11:50:52.293Z,1013.59
2022-11-29T11:51:52.290Z,1013.61
2022-11-29T11:52:52.534Z,1013.60
2022-11-29T11:53:52.283Z,1013.61
2022-11-29T11:54:52.298Z,1013.61
2022-11-29T11:55:52.280Z,1013.61
2022-11-29T11:56:52.267Z,1013.59
2022-11-29T11:57:52.263Z,1013.60
2022-11-29T11:58:52.257Z,1013.56
2022-11-29T11:59:52.255Z,1013.60
2022-11-29T12:01:07.595Z,1013.57
2022-11-29T12:01:52.252Z,1013.61
2022-11-29T12:02:52.314Z,1013.61
2022-11-29T12:03:52.240Z,1013.56
2022-11-29T12:04:52.243Z,1013.57
2022-11-29T12:05:52.251Z,1013.57